createdAt,value
2022-08-05T00:01:36.467Z,55.40
2022-08-05T00:04:16.644Z,55.50
2022-08-05T00:06:44.476Z,55.80
2022-08-05T00:09:15.917Z,55.50
2022-08-05T00:11:48.207Z,55.70
2022-08-05T00:14:17.202Z,56.00
2022-08-05T00:16:52.328Z,56.50
2022-08-05T00:19:33.646Z,57.00
2022-08-05T00:22:07.502Z,57.60
2022-08-05T00:24:38.549Z,58.30
2022-08-05T00:27:10.522Z,59.20
2022-08-05T00:29:43.293Z,60.10
2022-08-05T00:32:15.329Z,61.40
2022-08-05T00:35:04.726Z,62.90
2022-08-05T00:37:50.987Z,68.20
2022-08-05T00:40:27.299Z,70.30
2022-08-05T00:43:00.975Z,72.10
2022-08-05T00:45:38.484Z,72.30
2022-08-05T00:48:16.045Z,70.80
2022-08-05T00:50:46.015Z,68.60
2022-08-05T00:53:44.694Z,72.80
2022-08-05T00:56:05.730Z,78.00
2022-08-05T00:58:34.929Z,80.40
2022-08-05T01:01:08.614Z,82.20
2022-08-05T01:03:36.717Z,80.50
2022-08-05T01:06:05.380Z,81.10
2022-08-05T01:08:43.408Z,79.20
2022-08-05T01:11:33.596Z,77.00
2022-08-05T01:14:11.931Z,78.50
2022-08-05T01:16:58.355Z,79.50
2022-08-05T01:20:00.681Z,80.60
2022-08-05T01:22:42.775Z,81.00
2022-08-05T01:25:40.367Z,80.90
2022-08-05T01:28:33.082Z,82.20
2022-08-05T01:31:23.157Z,82.60
2022-08-05T01:34:04.577Z,83.80
2022-08-05T01:36:47.056Z,89.60
2022-08-05T01:39:46.593Z,90.80
2022-08-05T01:42:06.525Z,93.10
2022-08-05T01:44:37.852Z,92.80
2022-08-05T01:47:05.322Z,91.20
2022-08-05T01:49:59.976Z,92.30
2022-08-05T01:52:25.339Z,92.20
2022-08-05T01:54:56.840Z,92.50
2022-08-05T01:58:14.677Z,92.30
2022-08-05T02:00:17.114Z,93.90
2022-08-05T02:02:57.875Z,94.30
2022-08-05T02:05:28.629Z,94.90
2022-08-05T02:08:01.435Z,94.70
2022-08-05T02:10:39.548Z,94.60
2022-08-05T02:13:20.644Z,96.90
2022-08-05T02:15:56.236Z,96.90
2022-08-05T02:18:42.078Z,97.00
2022-08-05T02:21:43.392Z,97.90
2022-08-05T02:24:19.194Z,97.60
2022-08-05T02:26:54.796Z,98.10
2022-08-05T02:29:58.864Z,98.80
2022-08-05T02:32:12.959Z,98.70
2022-08-05T02:34:55.037Z,99.20
2022-08-05T02:37:23.416Z,99.90
2022-08-05T02:39:53.190Z,99.90
2022-08-05T02:42:26.067Z,99.90
2022-08-05T02:45:00.196Z,99.90
2022-08-05T02:48:06.480Z,99.90
2022-08-05T02:50:19.419Z,99.90
2022-08-05T02:52:47.190Z,99.90
2022-08-05T02:55:14.368Z,99.90
2022-08-05T02:58:20.088Z,99.90
2022-08-05T03:00:35.064Z,99.90
2022-08-05T03:03:07.570Z,99.90
2022-08-05T03:06:54.726Z,99.90
2022-08-05T03:08:26.913Z,99.90
2022-08-05T03:11:55.509Z,99.90
2022-08-05T03:13:51.561Z,99.90
2022-08-05T03:16:29.754Z,99.90
2022-08-05T03:18:59.023Z,99.90
2022-08-05T03:21:28.683Z,99.90
2022-08-05T03:23:56.927Z,99.90
2022-08-05T03:26:31.420Z,99.90
2022-08-05T03:28:59.767Z,99.90
2022-08-05T03:31:56.734Z,99.90
2022-08-05T03:34:14.239Z,99.90
2022-08-05T03:36:41.131Z,99.90
2022-08-05T03:39:12.875Z,99.90
2022-08-05T03:41:47.056Z,99.90
2022-08-05T03:44:19.721Z,99.90
2022-08-05T03:46:47.277Z,99.90
2022-08-05T03:49:15.469Z,99.90
2022-08-05T03:52:38.778Z,99.90
2022-08-05T03:55:52.150Z,99.90
2022-08-05T03:57:41.552Z,99.90
2022-08-05T04:00:15.682Z,99.90
2022-08-05T04:02:58.790Z,99.90
2022-08-05T04:05:33.843Z,99.90
2022-08-05T04:08:30.056Z,99.90
2022-08-05T04:10:55.454Z,99.90
2022-08-05T04:13:22.728Z,99.90
2022-08-05T04:16:03.342Z,99.90
2022-08-05T04:18:32.316Z,99.90
2022-08-05T04:21:02.246Z,99.90
2022-08-05T04:24:05.977Z,99.90
2022-08-05T04:26:18.812Z,99.90
2022-08-05T04:28:50.964Z,99.90
2022-08-05T04:31:19.433Z,99.90
2022-08-05T04:33:54.782Z,99.90
2022-08-05T04:36:45.892Z,99.90
2022-08-05T04:39:20.307Z,99.90
2022-08-05T04:41:48.483Z,99.90
2022-08-05T04:44:21.440Z,99.90
2022-08-05T04:46:58.386Z,99.90
2022-08-05T04:49:38.911Z,99.90
2022-08-05T04:52:12.555Z,99.90
2022-08-05T04:54:39.372Z,99.90
2022-08-05T04:57:06.143Z,99.90
2022-08-05T04:59:39.214Z,99.90
2022-08-05T05:02:36.707Z,99.90
2022-08-05T05:05:01.806Z,99.90
2022-08-05T05:07:32.784Z,99.90
2022-08-05T05:10:05.336Z,99.90
2022-08-05T05:12:33.414Z,99.90
2022-08-05T05:15:03.695Z,99.90
2022-08-05T05:17:55.728Z,99.90
2022-08-05T05:20:28.799Z,99.90
2022-08-05T05:23:02.135Z,99.90
2022-08-05T05:25:41.140Z,99.90
2022-08-05T05:28:09.320Z,99.90
2022-08-05T05:30:37.660Z,99.90
2022-08-05T05:33:16.067Z,99.90
2022-08-05T05:35:45.719Z,99.90
2022-08-05T05:38:13.839Z,99.90
2022-08-05T05:40:49.846Z,99.90
2022-08-05T05:43:28.167Z,99.90
2022-08-05T05:46:13.657Z,99.90
2022-08-05T05:48:43.911Z,99.90
2022-08-05T05:51:14.909Z,99.90
2022-08-05T05:53:46.029Z,99.90
2022-08-05T05:56:26.246Z,99.90
2022-08-05T05:59:03.475Z,99.90
2022-08-05T06:01:37.641Z,99.90
2022-08-05T06:04:11.802Z,99.90
2022-08-05T06:06:47.817Z,99.90
2022-08-05T06:09:18.079Z,99.90
2022-08-05T06:12:01.191Z,99.90
2022-08-05T06:14:30.123Z,99.90
2022-08-05T06:16:57.150Z,99.90
2022-08-05T06:19:33.989Z,99.90
2022-08-05T06:22:07.257Z,99.90
2022-08-05T06:24:41.081Z,99.90
2022-08-05T06:27:17.237Z,99.90
2022-08-05T06:30:04.548Z,99.90
2022-08-05T06:32:44.925Z,99.90
2022-08-05T06:35:15.242Z,99.90
2022-08-05T06:37:58.381Z,99.90
2022-08-05T06:40:27.911Z,99.90
2022-08-05T06:42:55.012Z,99.90
2022-08-05T06:45:45.054Z,99.90
2022-08-05T06:48:13.803Z,99.90
2022-08-05T06:50:57.168Z,99.90
2022-08-05T06:53:27.854Z,99.90
2022-08-05T06:55:58.968Z,99.90
2022-08-05T06:58:29.593Z,99.90
2022-08-05T07:01:03.770Z,99.90
2022-08-05T07:03:32.877Z,99.90
2022-08-05T07:06:06.169Z,99.90
2022-08-05T07:08:47.519Z,99.90
2022-08-05T07:11:22.583Z,99.90
2022-08-05T07:14:15.615Z,99.90
2022-08-05T07:18:01.906Z,99.90
2022-08-05T07:22:34.443Z,99.90
2022-08-05T07:25:23.057Z,99.90
2022-08-05T07:27:57.422Z,99.90
2022-08-05T07:30:32.069Z,99.90
2022-08-05T07:33:05.566Z,99.90
2022-08-05T07:36:03.459Z,99.90
2022-08-05T07:38:33.932Z,99.90
2022-08-05T07:41:34.981Z,99.90
2022-08-05T07:43:58.275Z,99.90
2022-08-05T07:46:30.825Z,99.90
2022-08-05T07:49:04.966Z,99.90
2022-08-05T07:51:48.654Z,99.90
2022-08-05T07:54:26.328Z,99.90
2022-08-05T07:57:14.772Z,99.90
2022-08-05T07:59:41.324Z,99.90
2022-08-05T08:02:15.701Z,99.90
2022-08-05T08:04:48.730Z,99.90
2022-08-05T08:07:22.477Z,99.90
2022-08-05T08:09:52.063Z,99.90
2022-08-05T08:12:32.004Z,99.90
2022-08-05T08:15:09.759Z,99.90
2022-08-05T08:17:46.125Z,99.90
2022-08-05T08:20:43.057Z,99.90
2022-08-05T08:23:04.538Z,99.90
2022-08-05T08:25:59.420Z,99.90
2022-08-05T08:28:35.597Z,99.90
2022-08-05T08:31:07.207Z,99.90
2022-08-05T08:33:35.887Z,99.90
2022-08-05T08:36:38.806Z,99.90
2022-08-05T08:38:55.635Z,99.90
2022-08-05T08:41:26.071Z,99.90
2022-08-05T08:45:19.741Z,99.90
2022-08-05T08:47:03.865Z,99.90
2022-08-05T08:50:23.069Z,99.90
2022-08-05T08:52:38.886Z,99.90
2022-08-05T08:55:13.304Z,99.90
2022-08-05T08:57:42.373Z,99.90
2022-08-05T09:00:16.380Z,99.90
2022-08-05T09:02:46.603Z,99.90
2022-08-05T09:05:17.385Z,99.90
2022-08-05T09:07:57.757Z,99.90
2022-08-05T09:10:27.838Z,99.90
2022-08-05T09:12:58.943Z,99.90
2022-08-05T09:15:32.431Z,99.90
2022-08-05T09:18:07.220Z,99.90
2022-08-05T09:20:37.699Z,99.90
2022-08-05T09:23:19.575Z,99.90
2022-08-05T09:26:02.122Z,99.90
2022-08-05T09:28:34.565Z,99.90
2022-08-05T09:31:23.417Z,99.90
2022-08-05T09:34:03.330Z,99.90
2022-08-05T09:36:55.897Z,99.70
2022-08-05T09:39:41.280Z,99.00
2022-08-05T09:42:24.499Z,97.80
2022-08-05T09:44:56.999Z,97.40
2022-08-05T09:47:36.583Z,97.90
2022-08-05T09:50:38.013Z,98.10
2022-08-05T09:53:06.452Z,96.80
2022-08-05T09:55:57.611Z,98.40
2022-08-05T09:58:24.064Z,96.50
2022-08-05T10:01:13.286Z,97.00
2022-08-05T10:03:59.436Z,96.40
2022-08-05T10:06:28.019Z,95.70
2022-08-05T10:08:55.770Z,95.20
2022-08-05T10:11:23.034Z,94.40
2022-08-05T10:13:54.808Z,94.10
2022-08-05T10:16:30.221Z,94.30
2022-08-05T10:18:59.847Z,94.20
2022-08-05T10:21:35.335Z,93.80
2022-08-05T10:24:10.936Z,93.60
2022-08-05T10:26:51.328Z,93.90
2022-08-05T10:29:24.078Z,92.40
2022-08-05T10:32:52.340Z,92.10
2022-08-05T10:35:01.079Z,92.20
2022-08-05T10:37:40.252Z,91.20
2022-08-05T10:40:28.053Z,91.50
2022-08-05T10:43:02.649Z,91.40
2022-08-05T10:45:40.265Z,91.10
2022-08-05T10:48:52.509Z,90.40
2022-08-05T10:51:28.732Z,91.40
2022-08-05T10:54:01.823Z,90.60
2022-08-05T10:56:49.514Z,90.30
2022-08-05T11:00:03.222Z,90.50
2022-08-05T11:02:34.764Z,90.70
2022-08-05T11:05:08.560Z,91.00
2022-08-05T11:08:03.014Z,90.90
2022-08-05T11:10:37.641Z,89.70
2022-08-05T11:13:55.163Z,90.10
2022-08-05T11:16:47.363Z,89.40
2022-08-05T11:20:16.721Z,88.10
2022-08-05T11:22:53.986Z,88.80
2022-08-05T11:26:05.736Z,88.90
2022-08-05T11:28:22.393Z,88.00
2022-08-05T11:30:56.123Z,88.00
2022-08-05T11:33:45.975Z,87.50
2022-08-05T11:36:34.328Z,86.40
2022-08-05T11:39:09.071Z,87.40
2022-08-05T11:42:00.655Z,85.70
2022-08-05T11:44:52.820Z,84.00
2022-08-05T11:47:22.083Z,84.30
2022-08-05T11:50:08.577Z,85.90
2022-08-05T11:52:35.471Z,83.00
2022-08-05T11:55:07.596Z,83.70
2022-08-05T11:58:07.907Z,82.90
2022-08-05T12:00:31.599Z,84.30
2022-08-05T12:03:14.939Z,83.30
2022-08-05T12:05:43.613Z,81.60
2022-08-05T12:08:11.630Z,81.70
2022-08-05T12:10:46.104Z,78.00
2022-08-05T12:13:18.690Z,78.30
2022-08-05T12:15:55.955Z,77.80
2022-08-05T12:18:38.681Z,79.20
2022-08-05T12:21:15.737Z,78.00
2022-08-05T12:24:05.451Z,78.60
2022-08-05T12:26:38.596Z,77.40
2022-08-05T12:29:09.907Z,76.50
2022-08-05T12:31:45.978Z,75.60
2022-08-05T12:34:21.438Z,74.90
2022-08-05T12:36:53.461Z,72.70
2022-08-05T12:39:20.998Z,74.60
2022-08-05T12:41:48.732Z,72.10
2022-08-05T12:44:28.454Z,71.80
2022-08-05T12:47:02.313Z,71.70
2022-08-05T12:50:02.176Z,74.30
2022-08-05T12:52:41.940Z,77.50
2022-08-05T12:55:26.475Z,83.20
2022-08-05T12:58:49.458Z,85.40
2022-08-05T13:02:01.383Z,89.90
2022-08-05T13:03:34.534Z,90.60
2022-08-05T13:06:10.457Z,91.80
2022-08-05T13:08:40.002Z,92.70
2022-08-05T13:11:07.759Z,92.70
2022-08-05T13:14:06.784Z,93.10
2022-08-05T13:16:27.677Z,93.60
2022-08-05T13:18:58.707Z,94.10
2022-08-05T13:21:28.418Z,95.80
2022-08-05T13:24:08.694Z,95.30
2022-08-05T13:26:36.314Z,95.70
2022-08-05T13:29:05.429Z,96.50
2022-08-05T13:32:02.851Z,96.60
2022-08-05T13:34:21.305Z,97.30
2022-08-05T13:36:50.440Z,97.60
2022-08-05T13:40:14.449Z,97.00
2022-08-05T13:42:05.433Z,98.50
2022-08-05T13:44:34.718Z,99.10
2022-08-05T13:47:08.353Z,99.20
2022-08-05T13:49:36.352Z,99.10
2022-08-05T13:52:20.698Z,98.20
2022-08-05T13:54:57.023Z,96.30
2022-08-05T13:57:26.493Z,96.20
2022-08-05T14:00:13.344Z,95.50
2022-08-05T14:02:40.214Z,95.80
2022-08-05T14:05:11.749Z,95.50
2022-08-05T14:08:00.724Z,95.80
2022-08-05T14:10:31.289Z,96.00
2022-08-05T14:12:58.767Z,96.30
2022-08-05T14:16:06.927Z,96.40
2022-08-05T14:18:17.509Z,96.50
2022-08-05T14:20:49.023Z,95.70
2022-08-05T14:23:25.155Z,95.40
2022-08-05T14:25:58.845Z,95.00
2022-08-05T14:28:29.804Z,95.50
2022-08-05T14:30:57.982Z,95.20
2022-08-05T14:33:24.843Z,95.30
2022-08-05T14:35:54.523Z,95.70
2022-08-05T14:38:32.243Z,95.60
2022-08-05T14:41:05.768Z,95.60
2022-08-05T14:43:57.619Z,96.10
2022-08-05T14:46:28.769Z,96.10
2022-08-05T14:48:59.507Z,96.50
2022-08-05T14:51:30.980Z,96.80
2022-08-05T14:54:06.590Z,96.60
2022-08-05T14:56:47.016Z,96.80
2022-08-05T14:59:15.211Z,96.50
2022-08-05T15:01:48.042Z,96.10
2022-08-05T15:04:17.420Z,95.70
2022-08-05T15:06:49.433Z,93.80
2022-08-05T15:09:50.658Z,93.60
2022-08-05T15:12:05.922Z,94.20
2022-08-05T15:14:34.675Z,94.50
2022-08-05T15:17:20.847Z,93.80
2022-08-05T15:19:56.297Z,93.90
2022-08-05T15:22:26.709Z,93.80
2022-08-05T15:24:55.357Z,94.20
2022-08-05T15:27:22.429Z,95.00
2022-08-05T15:29:56.689Z,95.20
2022-08-05T15:32:28.702Z,95.30
2022-08-05T15:34:56.887Z,95.30
2022-08-05T15:38:33.475Z,95.00
2022-08-05T15:40:59.774Z,95.40
2022-08-05T15:43:09.208Z,94.80
2022-08-05T15:45:45.642Z,95.00
2022-08-05T15:48:14.303Z,94.80
2022-08-05T15:50:43.608Z,94.60
2022-08-05T15:53:12.701Z,94.30
2022-08-05T15:56:03.204Z,94.30
2022-08-05T15:58:28.535Z,94.30
2022-08-05T16:03:43.499Z,93.30
2022-08-05T16:06:11.357Z,92.40
2022-08-05T16:08:40.061Z,91.80
2022-08-05T16:11:07.978Z,91.70
2022-08-05T16:13:35.383Z,91.70
2022-08-05T16:16:05.641Z,90.50
2022-08-05T16:18:33.115Z,89.10
2022-08-05T16:21:04.183Z,84.60
2022-08-05T16:23:53.197Z,82.40
2022-08-05T16:26:26.650Z,79.10
2022-08-05T16:28:55.309Z,78.30
2022-08-05T16:31:22.762Z,75.80
2022-08-05T16:33:52.057Z,73.70
2022-08-05T16:36:23.639Z,74.70
2022-08-05T16:38:54.316Z,73.30
2022-08-05T16:42:13.872Z,74.40
2022-08-05T16:44:11.445Z,70.60
2022-08-05T16:46:41.080Z,70.70
2022-08-05T16:49:09.975Z,69.20
2022-08-05T16:51:42.795Z,67.40
2022-08-05T16:54:25.811Z,65.70
2022-08-05T16:56:56.028Z,66.70
2022-08-05T16:59:22.909Z,65.70
2022-08-05T17:01:53.576Z,66.00
2022-08-05T17:04:21.866Z,67.70
2022-08-05T17:06:53.297Z,67.30
2022-08-05T17:09:21.122Z,67.00
2022-08-05T17:11:52.362Z,67.40
2022-08-05T17:14:37.121Z,68.50
2022-08-05T17:17:06.771Z,68.20
2022-08-05T17:19:43.755Z,67.50
2022-08-05T17:22:24.489Z,67.70
2022-08-05T17:24:57.089Z,68.10
2022-08-05T17:27:26.529Z,68.40
2022-08-05T17:30:00.674Z,68.80
2022-08-05T17:32:29.687Z,67.80
2022-08-05T17:34:58.262Z,68.00
2022-08-05T17:37:40.546Z,66.60
2022-08-05T17:40:14.834Z,66.10
2022-08-05T17:42:50.751Z,66.00
2022-08-05T17:45:25.015Z,66.80
2022-08-05T17:47:56.667Z,67.50
2022-08-05T17:50:30.312Z,67.30
2022-08-05T17:53:02.744Z,68.00
2022-08-05T17:55:37.618Z,68.80
2022-08-05T17:58:09.391Z,68.80
2022-08-05T18:00:44.415Z,68.90
2022-08-05T18:03:12.336Z,68.50
2022-08-05T18:05:55.279Z,68.90
2022-08-05T18:08:28.455Z,69.60
2022-08-05T18:10:55.300Z,69.30
2022-08-05T18:13:25.748Z,68.50
2022-08-05T18:15:52.966Z,68.10
2022-08-05T18:18:21.522Z,68.00
2022-08-05T18:20:53.202Z,67.30
2022-08-05T18:23:21.927Z,67.20
2022-08-05T18:25:49.176Z,67.10
2022-08-05T18:28:28.267Z,66.90
2022-08-05T18:30:55.423Z,67.00
2022-08-05T18:33:24.155Z,67.20
2022-08-05T18:36:04.256Z,67.40
2022-08-05T18:38:37.109Z,68.10
2022-08-05T18:41:57.469Z,68.10
2022-08-05T18:43:54.094Z,68.30
2022-08-05T18:46:21.347Z,68.60
2022-08-05T18:48:53.466Z,68.70
2022-08-05T18:52:05.827Z,69.40
2022-08-05T18:54:27.615Z,70.20
2022-08-05T18:56:57.142Z,70.60
2022-08-05T18:59:43.923Z,71.20
2022-08-05T19:02:27.761Z,71.80
2022-08-05T19:05:02.459Z,72.50
2022-08-05T19:07:47.660Z,73.00
2022-08-05T19:10:15.566Z,73.60
2022-08-05T19:12:43.076Z,74.10
2022-08-05T19:15:25.326Z,74.50
2022-08-05T19:18:08.507Z,74.80
2022-08-05T19:20:41.449Z,75.40
2022-08-05T19:24:06.150Z,75.70
2022-08-05T19:26:01.035Z,76.10
2022-08-05T19:28:29.084Z,76.60
2022-08-05T19:30:56.006Z,77.50
2022-08-05T19:33:35.566Z,77.70
2022-08-05T19:36:03.653Z,78.20
2022-08-05T19:38:36.797Z,78.60
2022-08-05T19:41:07.395Z,78.70
2022-08-05T19:44:06.887Z,79.10
2022-08-05T19:46:30.433Z,79.80
2022-08-05T19:49:03.623Z,80.90
2022-08-05T19:52:05.668Z,81.20
2022-08-05T19:54:31.137Z,81.50
2022-08-05T19:57:06.574Z,82.20
2022-08-05T19:59:55.446Z,82.60
2022-08-05T20:02:25.977Z,83.50
2022-08-05T20:04:54.741Z,84.00
2022-08-05T20:07:45.796Z,84.90
2022-08-05T20:10:13.547Z,84.10
2022-08-05T20:12:47.789Z,84.70
2022-08-05T20:15:47.761Z,85.10
2022-08-05T20:18:10.738Z,85.70
2022-08-05T20:20:56.720Z,86.00
2022-08-05T20:23:39.506Z,86.60
2022-08-05T20:26:16.378Z,87.10
2022-08-05T20:28:49.667Z,87.20
2022-08-05T20:31:18.063Z,87.30
2022-08-05T20:33:50.711Z,87.70
2022-08-05T20:36:18.856Z,88.10
2022-08-05T20:38:53.727Z,88.30
2022-08-05T20:41:27.276Z,88.20
2022-08-05T20:44:18.744Z,88.40
2022-08-05T20:46:57.782Z,88.30
2022-08-05T20:49:26.140Z,88.10
2022-08-05T20:51:54.006Z,87.00
2022-08-05T20:54:22.022Z,86.10
2022-08-05T20:56:49.150Z,85.80
2022-08-05T20:59:26.226Z,85.10
2022-08-05T21:01:57.218Z,84.90
2022-08-05T21:04:26.972Z,84.90
2022-08-05T21:06:54.622Z,84.80
2022-08-05T21:09:22.669Z,85.00
2022-08-05T21:12:07.741Z,84.90
2022-08-05T21:14:37.794Z,83.40
2022-08-05T21:17:05.143Z,82.70
2022-08-05T21:19:46.598Z,80.50
2022-08-05T21:22:23.182Z,79.30
2022-08-05T21:24:52.092Z,78.50
2022-08-05T21:27:25.487Z,78.10
2022-08-05T21:29:58.150Z,77.80
2022-08-05T21:32:29.055Z,77.50
2022-08-05T21:35:16.718Z,77.60
2022-08-05T21:37:47.481Z,77.50
2022-08-05T21:40:23.865Z,77.20
2022-08-05T21:42:52.879Z,76.70
2022-08-05T21:45:24.738Z,76.80
2022-08-05T21:48:08.770Z,76.60
2022-08-05T21:50:36.685Z,76.70
2022-08-05T21:53:16.310Z,76.40
2022-08-05T21:56:04.450Z,75.90
2022-08-05T21:58:32.168Z,75.30
2022-08-05T22:00:59.870Z,74.20
2022-08-05T22:03:48.711Z,74.20
2022-08-05T22:06:15.787Z,72.40
2022-08-05T22:08:42.940Z,71.60
2022-08-05T22:11:15.438Z,71.00
2022-08-05T22:14:33.135Z,70.80
2022-08-05T22:16:42.117Z,70.40
2022-08-05T22:20:00.793Z,70.00
2022-08-05T22:22:03.787Z,70.20
2022-08-05T22:24:52.075Z,70.20
2022-08-05T22:28:11.056Z,70.80
2022-08-05T22:30:24.880Z,70.50
2022-08-05T22:32:59.536Z,70.90
2022-08-05T22:35:26.512Z,70.90
2022-08-05T22:38:06.163Z,70.90
2022-08-05T22:40:36.804Z,70.20
2022-08-05T22:43:05.208Z,70.40
2022-08-05T22:45:32.029Z,70.10
2022-08-05T22:47:59.661Z,71.30
2022-08-05T22:50:27.757Z,70.50
2022-08-05T22:52:55.182Z,69.80
2022-08-05T22:55:23.226Z,69.90
2022-08-05T22:57:53.666Z,69.70
2022-08-05T23:00:23.405Z,69.60
2022-08-05T23:02:52.052Z,70.00
2022-08-05T23:05:22.170Z,70.00
2022-08-05T23:07:50.626Z,70.60
2022-08-05T23:10:19.656Z,70.40
2022-08-05T23:12:51.511Z,70.80
2022-08-05T23:15:27.023Z,71.00
2022-08-05T23:18:01.154Z,70.80
2022-08-05T23:20:32.172Z,71.60
2022-08-05T23:22:59.893Z,71.50
2022-08-05T23:25:52.196Z,71.50
2022-08-05T23:28:16.007Z,72.10
2022-08-05T23:30:53.435Z,73.00
2022-08-05T23:33:26.528Z,73.20
2022-08-05T23:36:10.351Z,73.30
2022-08-05T23:38:37.900Z,73.70
2022-08-05T23:41:04.925Z,74.30
2022-08-05T23:44:04.341Z,74.70
2022-08-05T23:46:21.408Z,75.40
2022-08-05T23:48:59.847Z,75.80
2022-08-05T23:51:54.295Z,76.30
2022-08-05T23:54:36.462Z,76.90
2022-08-05T23:57:06.648Z,77.30
